sensor_id;sensor_type;location;lat;lon;timestamp;P1;durP1;ratioP1;P2;durP2;ratioP2
33760;SDS011;20084;47.912;19.044;2024-01-16T00:00:04;2.42;;;2.15;;
33760;SDS011;20084;47.912;19.044;2024-01-16T00:02:30;2.08;;;1.88;;
33760;SDS011;20084;47.912;19.044;2024-01-16T00:04:55;3.67;;;2.15;;
33760;SDS011;20084;47.912;19.044;2024-01-16T00:07:21;3.22;;;2.17;;
33760;SDS011;20084;47.912;19.044;2024-01-16T00:09:47;2.28;;;1.60;;
33760;SDS011;20084;47.912;19.044;2024-01-16T00:12:12;2.65;;;2.00;;
33760;SDS011;20084;47.912;19.044;2024-01-16T00:14:38;2.80;;;2.10;;
33760;SDS011;20084;47.912;19.044;2024-01-16T00:17:04;3.63;;;2.25;;
33760;SDS011;20084;47.912;19.044;2024-01-16T00:19:30;3.05;;;2.10;;
33760;SDS011;20084;47.912;19.044;2024-01-16T00:21:56;27.27;;;2.40;;
33760;SDS011;20084;47.912;19.044;2024-01-16T00:24:21;2.85;;;2.00;;
33760;SDS011;20084;47.912;19.044;2024-01-16T00:26:47;4.22;;;2.08;;
33760;SDS011;20084;47.912;19.044;2024-01-16T00:29:14;2.20;;;1.75;;
33760;SDS011;20084;47.912;19.044;2024-01-16T00:31:40;3.08;;;1.90;;
33760;SDS011;20084;47.912;19.044;2024-01-16T00:34:06;3.65;;;2.30;;
33760;SDS011;20084;47.912;19.044;2024-01-16T00:36:32;2.45;;;1.90;;
33760;SDS011;20084;47.912;19.044;2024-01-16T00:38:58;2.53;;;1.60;;
33760;SDS011;20084;47.912;19.044;2024-01-16T00:41:24;3.13;;;1.98;;
33760;SDS011;20084;47.912;19.044;2024-01-16T00:43:49;2.40;;;1.60;;
33760;SDS011;20084;47.912;19.044;2024-01-16T00:46:15;1.67;;;1.58;;
33760;SDS011;20084;47.912;19.044;2024-01-16T00:48:40;2.20;;;1.75;;
33760;SDS011;20084;47.912;19.044;2024-01-16T00:51:06;2.40;;;1.90;;
33760;SDS011;20084;47.912;19.044;2024-01-16T00:53:32;2.08;;;1.60;;
33760;SDS011;20084;47.912;19.044;2024-01-16T00:55:57;2.65;;;1.75;;
33760;SDS011;20084;47.912;19.044;2024-01-16T00:58:23;2.13;;;1.70;;
33760;SDS011;20084;47.912;19.044;2024-01-16T01:00:49;4.15;;;1.50;;
33760;SDS011;20084;47.912;19.044;2024-01-16T01:03:14;2.00;;;1.42;;
33760;SDS011;20084;47.912;19.044;2024-01-16T01:05:40;2.47;;;1.92;;
33760;SDS011;20084;47.912;19.044;2024-01-16T01:08:06;1.58;;;1.38;;
33760;SDS011;20084;47.912;19.044;2024-01-16T01:10:32;1.80;;;1.52;;
33760;SDS011;20084;47.912;19.044;2024-01-16T01:12:58;3.63;;;1.90;;
33760;SDS011;20084;47.912;19.044;2024-01-16T01:15:23;1.75;;;1.50;;
33760;SDS011;20084;47.912;19.044;2024-01-16T01:17:49;3.60;;;1.60;;
33760;SDS011;20084;47.912;19.044;2024-01-16T01:20:16;1.83;;;1.50;;
33760;SDS011;20084;47.912;19.044;2024-01-16T01:22:43;1.33;;;1.23;;
33760;SDS011;20084;47.912;19.044;2024-01-16T01:25:09;1.73;;;1.52;;
33760;SDS011;20084;47.912;19.044;2024-01-16T01:27:35;1.85;;;1.50;;
33760;SDS011;20084;47.912;19.044;2024-01-16T01:30:01;1.90;;;1.30;;
33760;SDS011;20084;47.912;19.044;2024-01-16T01:32:27;2.05;;;1.45;;
33760;SDS011;20084;47.912;19.044;2024-01-16T01:34:53;2.35;;;1.60;;
33760;SDS011;20084;47.912;19.044;2024-01-16T01:37:18;2.75;;;2.45;;
33760;SDS011;20084;47.912;19.044;2024-01-16T01:39:44;1.80;;;1.55;;
33760;SDS011;20084;47.912;19.044;2024-01-16T01:42:09;2.47;;;1.48;;
33760;SDS011;20084;47.912;19.044;2024-01-16T01:44:35;1.85;;;1.25;;
33760;SDS011;20084;47.912;19.044;2024-01-16T01:47:01;1.42;;;1.33;;
33760;SDS011;20084;47.912;19.044;2024-01-16T01:49:27;1.88;;;1.50;;
33760;SDS011;20084;47.912;19.044;2024-01-16T01:51:53;1.65;;;1.42;;
33760;SDS011;20084;47.912;19.044;2024-01-16T01:54:19;1.65;;;1.55;;
33760;SDS011;20084;47.912;19.044;2024-01-16T01:56:47;2.05;;;1.40;;
33760;SDS011;20084;47.912;19.044;2024-01-16T01:59:14;1.88;;;1.60;;
33760;SDS011;20084;47.912;19.044;2024-01-16T02:01:43;1.98;;;1.52;;
33760;SDS011;20084;47.912;19.044;2024-01-16T02:04:16;1.65;;;1.55;;
33760;SDS011;20084;47.912;19.044;2024-01-16T02:06:44;2.78;;;2.05;;
33760;SDS011;20084;47.912;19.044;2024-01-16T02:09:10;10.15;;;1.50;;
33760;SDS011;20084;47.912;19.044;2024-01-16T02:11:39;1.83;;;1.50;;
33760;SDS011;20084;47.912;19.044;2024-01-16T02:14:06;1.98;;;1.65;;
33760;SDS011;20084;47.912;19.044;2024-01-16T02:16:36;2.40;;;1.35;;
33760;SDS011;20084;47.912;19.044;2024-01-16T02:19:03;1.20;;;1.00;;
33760;SDS011;20084;47.912;19.044;2024-01-16T02:21:30;2.40;;;1.63;;
33760;SDS011;20084;47.912;19.044;2024-01-16T02:24:16;1.63;;;1.13;;
33760;SDS011;20084;47.912;19.044;2024-01-16T02:26:43;1.50;;;1.15;;
33760;SDS011;20084;47.912;19.044;2024-01-16T02:29:09;1.20;;;1.10;;
33760;SDS011;20084;47.912;19.044;2024-01-16T02:31:35;2.03;;;1.33;;
33760;SDS011;20084;47.912;19.044;2024-01-16T02:34:01;1.92;;;1.02;;
33760;SDS011;20084;47.912;19.044;2024-01-16T02:36:30;3.17;;;1.33;;
33760;SDS011;20084;47.912;19.044;2024-01-16T02:38:55;2.35;;;1.67;;
33760;SDS011;20084;47.912;19.044;2024-01-16T02:41:21;1.45;;;1.25;;
33760;SDS011;20084;47.912;19.044;2024-01-16T02:43:47;2.00;;;1.40;;
33760;SDS011;20084;47.912;19.044;2024-01-16T02:46:13;1.50;;;1.20;;
33760;SDS011;20084;47.912;19.044;2024-01-16T02:48:39;2.83;;;1.70;;
33760;SDS011;20084;47.912;19.044;2024-01-16T02:51:05;2.47;;;1.75;;
33760;SDS011;20084;47.912;19.044;2024-01-16T02:53:31;2.83;;;1.65;;
33760;SDS011;20084;47.912;19.044;2024-01-16T02:55:56;2.78;;;1.80;;
33760;SDS011;20084;47.912;19.044;2024-01-16T02:58:28;2.33;;;1.70;;
33760;SDS011;20084;47.912;19.044;2024-01-16T03:00:55;2.50;;;1.42;;
33760;SDS011;20084;47.912;19.044;2024-01-16T03:03:22;2.47;;;2.00;;
33760;SDS011;20084;47.912;19.044;2024-01-16T03:05:47;2.58;;;1.83;;
33760;SDS011;20084;47.912;19.044;2024-01-16T03:08:14;2.03;;;1.70;;
33760;SDS011;20084;47.912;19.044;2024-01-16T03:10:39;3.53;;;1.63;;
33760;SDS011;20084;47.912;19.044;2024-01-16T03:13:05;2.45;;;1.70;;
33760;SDS011;20084;47.912;19.044;2024-01-16T03:15:31;2.47;;;1.70;;
33760;SDS011;20084;47.912;19.044;2024-01-16T03:17:57;1.52;;;1.38;;
33760;SDS011;20084;47.912;19.044;2024-01-16T03:20:23;2.28;;;1.95;;
33760;SDS011;20084;47.912;19.044;2024-01-16T03:22:49;1.95;;;1.35;;
33760;SDS011;20084;47.912;19.044;2024-01-16T03:25:15;2.22;;;1.90;;
33760;SDS011;20084;47.912;19.044;2024-01-16T03:27:42;2.15;;;1.90;;
33760;SDS011;20084;47.912;19.044;2024-01-16T03:30:09;2.92;;;1.77;;
33760;SDS011;20084;47.912;19.044;2024-01-16T03:32:35;2.17;;;1.88;;
33760;SDS011;20084;47.912;19.044;2024-01-16T03:35:01;2.10;;;1.35;;
33760;SDS011;20084;47.912;19.044;2024-01-16T03:37:27;1.55;;;1.35;;
33760;SDS011;20084;47.912;19.044;2024-01-16T03:39:53;1.80;;;1.20;;
33760;SDS011;20084;47.912;19.044;2024-01-16T03:42:19;1.27;;;1.00;;
33760;SDS011;20084;47.912;19.044;2024-01-16T03:44:45;2.38;;;1.80;;
33760;SDS011;20084;47.912;19.044;2024-01-16T03:47:11;1.67;;;1.45;;
33760;SDS011;20084;47.912;19.044;2024-01-16T03:49:37;3.05;;;1.90;;
33760;SDS011;20084;47.912;19.044;2024-01-16T03:52:03;1.88;;;1.65;;
33760;SDS011;20084;47.912;19.044;2024-01-16T03:54:28;1.92;;;1.58;;
33760;SDS011;20084;47.912;19.044;2024-01-16T03:56:54;2.30;;;1.55;;
33760;SDS011;20084;47.912;19.044;2024-01-16T03:59:20;1.58;;;1.40;;
33760;SDS011;20084;47.912;19.044;2024-01-16T04:01:46;1.75;;;1.63;;
33760;SDS011;20084;47.912;19.044;2024-01-16T04:04:13;2.17;;;1.60;;
33760;SDS011;20084;47.912;19.044;2024-01-16T04:06:38;2.65;;;1.73;;
33760;SDS011;20084;47.912;19.044;2024-01-16T04:09:06;5.45;;;1.73;;
33760;SDS011;20084;47.912;19.044;2024-01-16T04:11:33;2.63;;;1.73;;
33760;SDS011;20084;47.912;19.044;2024-01-16T04:13:59;2.05;;;1.50;;
33760;SDS011;20084;47.912;19.044;2024-01-16T04:16:25;1.40;;;1.30;;
33760;SDS011;20084;47.912;19.044;2024-01-16T04:18:50;3.25;;;1.73;;
33760;SDS011;20084;47.912;19.044;2024-01-16T04:21:16;3.00;;;1.90;;
33760;SDS011;20084;47.912;19.044;2024-01-16T04:23:42;2.15;;;1.45;;
33760;SDS011;20084;47.912;19.044;2024-01-16T04:26:07;3.05;;;1.60;;
33760;SDS011;20084;47.912;19.044;2024-01-16T04:28:33;2.08;;;1.58;;
33760;SDS011;20084;47.912;19.044;2024-01-16T04:31:00;2.25;;;1.65;;
33760;SDS011;20084;47.912;19.044;2024-01-16T04:33:26;3.30;;;1.67;;
33760;SDS011;20084;47.912;19.044;2024-01-16T04:35:52;2.30;;;2.00;;
33760;SDS011;20084;47.912;19.044;2024-01-16T04:38:18;2.20;;;1.70;;
33760;SDS011;20084;47.912;19.044;2024-01-16T04:40:43;2.20;;;1.58;;
33760;SDS011;20084;47.912;19.044;2024-01-16T04:43:09;3.72;;;2.00;;
33760;SDS011;20084;47.912;19.044;2024-01-16T04:45:35;1.95;;;1.45;;
33760;SDS011;20084;47.912;19.044;2024-01-16T04:48:00;2.63;;;1.60;;
33760;SDS011;20084;47.912;19.044;2024-01-16T04:50:26;2.55;;;1.83;;
33760;SDS011;20084;47.912;19.044;2024-01-16T04:52:56;2.67;;;1.75;;
33760;SDS011;20084;47.912;19.044;2024-01-16T04:55:26;2.30;;;1.70;;
33760;SDS011;20084;47.912;19.044;2024-01-16T04:57:52;3.10;;;2.00;;
33760;SDS011;20084;47.912;19.044;2024-01-16T05:00:19;3.95;;;2.15;;
33760;SDS011;20084;47.912;19.044;2024-01-16T05:02:45;2.78;;;1.92;;
33760;SDS011;20084;47.912;19.044;2024-01-16T05:05:11;2.50;;;2.15;;
33760;SDS011;20084;47.912;19.044;2024-01-16T05:07:37;1.65;;;1.52;;
33760;SDS011;20084;47.912;19.044;2024-01-16T05:10:03;2.33;;;1.92;;
33760;SDS011;20084;47.912;19.044;2024-01-16T05:12:29;1.85;;;1.55;;
33760;SDS011;20084;47.912;19.044;2024-01-16T05:14:55;2.53;;;1.80;;
33760;SDS011;20084;47.912;19.044;2024-01-16T05:17:21;1.80;;;1.60;;
33760;SDS011;20084;47.912;19.044;2024-01-16T05:19:46;3.83;;;1.98;;
33760;SDS011;20084;47.912;19.044;2024-01-16T05:22:12;2.28;;;1.98;;
33760;SDS011;20084;47.912;19.044;2024-01-16T05:24:37;2.97;;;1.98;;
33760;SDS011;20084;47.912;19.044;2024-01-16T05:27:03;2.83;;;1.75;;
33760;SDS011;20084;47.912;19.044;2024-01-16T05:29:29;2.00;;;1.50;;
33760;SDS011;20084;47.912;19.044;2024-01-16T05:31:56;2.25;;;1.88;;
33760;SDS011;20084;47.912;19.044;2024-01-16T05:34:22;3.60;;;1.98;;
33760;SDS011;20084;47.912;19.044;2024-01-16T05:36:47;2.95;;;2.03;;
33760;SDS011;20084;47.912;19.044;2024-01-16T05:39:13;2.40;;;2.10;;
33760;SDS011;20084;47.912;19.044;2024-01-16T05:41:38;1.80;;;1.67;;
33760;SDS011;20084;47.912;19.044;2024-01-16T05:44:04;3.63;;;2.08;;
33760;SDS011;20084;47.912;19.044;2024-01-16T05:46:32;2.90;;;1.52;;
33760;SDS011;20084;47.912;19.044;2024-01-16T05:48:59;2.83;;;1.80;;
33760;SDS011;20084;47.912;19.044;2024-01-16T05:51:26;2.63;;;1.65;;
33760;SDS011;20084;47.912;19.044;2024-01-16T05:53:52;2.25;;;1.80;;
33760;SDS011;20084;47.912;19.044;2024-01-16T05:56:18;1.95;;;1.50;;
33760;SDS011;20084;47.912;19.044;2024-01-16T05:58:43;1.77;;;1.08;;
33760;SDS011;20084;47.912;19.044;2024-01-16T06:01:09;3.22;;;2.05;;
33760;SDS011;20084;47.912;19.044;2024-01-16T06:03:38;1.50;;;1.40;;
33760;SDS011;20084;47.912;19.044;2024-01-16T06:06:04;3.30;;;2.00;;
33760;SDS011;20084;47.912;19.044;2024-01-16T06:08:30;2.80;;;1.70;;
33760;SDS011;20084;47.912;19.044;2024-01-16T06:10:56;1.80;;;1.55;;
33760;SDS011;20084;47.912;19.044;2024-01-16T06:13:21;2.67;;;1.55;;
33760;SDS011;20084;47.912;19.044;2024-01-16T06:15:47;1.85;;;1.60;;
33760;SDS011;20084;47.912;19.044;2024-01-16T06:18:13;4.03;;;1.45;;
33760;SDS011;20084;47.912;19.044;2024-01-16T06:20:38;3.60;;;1.67;;
33760;SDS011;20084;47.912;19.044;2024-01-16T06:23:04;1.80;;;1.60;;
33760;SDS011;20084;47.912;19.044;2024-01-16T06:25:30;4.68;;;2.08;;
33760;SDS011;20084;47.912;19.044;2024-01-16T06:27:55;2.13;;;1.67;;
33760;SDS011;20084;47.912;19.044;2024-01-16T06:30:21;3.08;;;2.03;;
33760;SDS011;20084;47.912;19.044;2024-01-16T06:32:48;4.15;;;2.58;;
33760;SDS011;20084;47.912;19.044;2024-01-16T06:35:15;3.88;;;2.50;;
33760;SDS011;20084;47.912;19.044;2024-01-16T06:37:41;2.47;;;1.60;;
33760;SDS011;20084;47.912;19.044;2024-01-16T06:40:07;4.10;;;1.40;;
33760;SDS011;20084;47.912;19.044;2024-01-16T06:42:34;3.47;;;1.92;;
33760;SDS011;20084;47.912;19.044;2024-01-16T06:45:01;2.45;;;1.77;;
33760;SDS011;20084;47.912;19.044;2024-01-16T06:47:27;3.72;;;1.67;;
33760;SDS011;20084;47.912;19.044;2024-01-16T06:49:52;2.22;;;1.50;;
33760;SDS011;20084;47.912;19.044;2024-01-16T06:52:19;2.25;;;1.10;;
33760;SDS011;20084;47.912;19.044;2024-01-16T06:54:44;3.67;;;1.38;;
33760;SDS011;20084;47.912;19.044;2024-01-16T06:57:10;1.77;;;1.40;;
33760;SDS011;20084;47.912;19.044;2024-01-16T06:59:36;2.83;;;1.92;;
33760;SDS011;20084;47.912;19.044;2024-01-16T07:02:01;2.35;;;1.58;;
33760;SDS011;20084;47.912;19.044;2024-01-16T07:04:28;1.55;;;1.23;;
33760;SDS011;20084;47.912;19.044;2024-01-16T07:06:54;1.58;;;1.10;;
33760;SDS011;20084;47.912;19.044;2024-01-16T07:09:20;2.47;;;1.38;;
33760;SDS011;20084;47.912;19.044;2024-01-16T07:11:46;2.50;;;1.40;;
33760;SDS011;20084;47.912;19.044;2024-01-16T07:14:12;2.20;;;1.30;;
33760;SDS011;20084;47.912;19.044;2024-01-16T07:16:38;1.77;;;1.58;;
33760;SDS011;20084;47.912;19.044;2024-01-16T07:19:04;2.35;;;1.60;;
33760;SDS011;20084;47.912;19.044;2024-01-16T07:21:30;2.22;;;1.40;;
33760;SDS011;20084;47.912;19.044;2024-01-16T07:23:55;2.55;;;1.60;;
33760;SDS011;20084;47.912;19.044;2024-01-16T07:26:22;1.50;;;1.33;;
33760;SDS011;20084;47.912;19.044;2024-01-16T07:28:48;1.65;;;1.27;;
33760;SDS011;20084;47.912;19.044;2024-01-16T07:31:14;2.13;;;1.33;;
33760;SDS011;20084;47.912;19.044;2024-01-16T07:33:41;2.22;;;1.65;;
33760;SDS011;20084;47.912;19.044;2024-01-16T07:36:07;5.18;;;1.70;;
33760;SDS011;20084;47.912;19.044;2024-01-16T07:38:33;2.38;;;1.65;;
33760;SDS011;20084;47.912;19.044;2024-01-16T07:40:59;2.08;;;1.40;;
33760;SDS011;20084;47.912;19.044;2024-01-16T07:43:24;2.80;;;1.73;;
33760;SDS011;20084;47.912;19.044;2024-01-16T07:45:50;2.08;;;1.63;;
33760;SDS011;20084;47.912;19.044;2024-01-16T07:48:16;3.05;;;1.45;;
33760;SDS011;20084;47.912;19.044;2024-01-16T07:50:41;2.28;;;1.60;;
33760;SDS011;20084;47.912;19.044;2024-01-16T07:53:07;1.35;;;1.25;;
33760;SDS011;20084;47.912;19.044;2024-01-16T07:55:33;7.75;;;3.22;;
33760;SDS011;20084;47.912;19.044;2024-01-16T07:57:58;2.03;;;1.60;;
33760;SDS011;20084;47.912;19.044;2024-01-16T08:00:24;1.83;;;1.48;;
33760;SDS011;20084;47.912;19.044;2024-01-16T08:02:49;2.92;;;2.08;;
33760;SDS011;20084;47.912;19.044;2024-01-16T08:05:15;1.77;;;1.40;;
33760;SDS011;20084;47.912;19.044;2024-01-16T08:07:43;2.67;;;1.63;;
33760;SDS011;20084;47.912;19.044;2024-01-16T08:10:10;2.03;;;1.63;;
33760;SDS011;20084;47.912;19.044;2024-01-16T08:12:36;3.05;;;1.60;;
33760;SDS011;20084;47.912;19.044;2024-01-16T08:15:02;2.50;;;1.67;;
33760;SDS011;20084;47.912;19.044;2024-01-16T08:17:29;3.60;;;1.90;;
33760;SDS011;20084;47.912;19.044;2024-01-16T08:19:54;4.18;;;2.00;;
33760;SDS011;20084;47.912;19.044;2024-01-16T08:22:20;1.42;;;1.17;;
33760;SDS011;20084;47.912;19.044;2024-01-16T08:24:45;2.67;;;1.73;;
33760;SDS011;20084;47.912;19.044;2024-01-16T08:27:11;2.33;;;1.42;;
33760;SDS011;20084;47.912;19.044;2024-01-16T08:29:37;1.88;;;1.33;;
33760;SDS011;20084;47.912;19.044;2024-01-16T08:32:02;4.00;;;2.10;;
33760;SDS011;20084;47.912;19.044;2024-01-16T08:34:29;1.98;;;1.80;;
33760;SDS011;20084;47.912;19.044;2024-01-16T08:36:54;2.58;;;1.48;;
33760;SDS011;20084;47.912;19.044;2024-01-16T08:39:22;1.85;;;1.70;;
33760;SDS011;20084;47.912;19.044;2024-01-16T08:41:49;2.53;;;1.60;;
33760;SDS011;20084;47.912;19.044;2024-01-16T08:44:15;3.45;;;1.60;;
33760;SDS011;20084;47.912;19.044;2024-01-16T08:46:40;3.92;;;1.80;;
33760;SDS011;20084;47.912;19.044;2024-01-16T08:49:06;1.83;;;1.52;;
33760;SDS011;20084;47.912;19.044;2024-01-16T08:51:31;3.60;;;1.92;;
33760;SDS011;20084;47.912;19.044;2024-01-16T08:53:57;2.63;;;1.40;;
33760;SDS011;20084;47.912;19.044;2024-01-16T08:56:22;7.95;;;1.50;;
33760;SDS011;20084;47.912;19.044;2024-01-16T08:58:48;2.22;;;1.50;;
33760;SDS011;20084;47.912;19.044;2024-01-16T09:01:13;1.75;;;1.20;;
33760;SDS011;20084;47.912;19.044;2024-01-16T09:03:39;2.30;;;1.30;;
33760;SDS011;20084;47.912;19.044;2024-01-16T09:06:08;1.42;;;1.08;;
33760;SDS011;20084;47.912;19.044;2024-01-16T09:08:35;1.55;;;1.27;;
33760;SDS011;20084;47.912;19.044;2024-01-16T09:11:01;3.85;;;1.60;;
33760;SDS011;20084;47.912;19.044;2024-01-16T09:13:26;2.08;;;1.58;;
33760;SDS011;20084;47.912;19.044;2024-01-16T09:15:52;1.73;;;1.20;;
33760;SDS011;20084;47.912;19.044;2024-01-16T09:18:18;1.70;;;1.17;;
33760;SDS011;20084;47.912;19.044;2024-01-16T09:20:43;2.38;;;1.30;;
33760;SDS011;20084;47.912;19.044;2024-01-16T09:23:09;3.17;;;1.40;;
33760;SDS011;20084;47.912;19.044;2024-01-16T09:25:35;1.52;;;1.10;;
33760;SDS011;20084;47.912;19.044;2024-01-16T09:28:01;3.15;;;1.40;;
33760;SDS011;20084;47.912;19.044;2024-01-16T09:30:27;3.08;;;1.48;;
33760;SDS011;20084;47.912;19.044;2024-01-16T09:32:52;4.88;;;1.40;;
33760;SDS011;20084;47.912;19.044;2024-01-16T09:35:18;2.15;;;1.38;;
33760;SDS011;20084;47.912;19.044;2024-01-16T09:37:44;2.35;;;1.70;;
33760;SDS011;20084;47.912;19.044;2024-01-16T09:40:10;2.65;;;1.45;;
33760;SDS011;20084;47.912;19.044;2024-01-16T09:42:36;3.38;;;1.58;;
33760;SDS011;20084;47.912;19.044;2024-01-16T09:45:02;2.40;;;1.35;;
33760;SDS011;20084;47.912;19.044;2024-01-16T09:47:31;3.42;;;1.65;;
33760;SDS011;20084;47.912;19.044;2024-01-16T09:49:57;3.05;;;1.45;;
33760;SDS011;20084;47.912;19.044;2024-01-16T09:52:25;1.88;;;1.33;;
33760;SDS011;20084;47.912;19.044;2024-01-16T09:54:51;2.38;;;1.60;;
33760;SDS011;20084;47.912;19.044;2024-01-16T09:57:18;1.73;;;1.30;;
33760;SDS011;20084;47.912;19.044;2024-01-16T09:59:48;2.90;;;1.50;;
33760;SDS011;20084;47.912;19.044;2024-01-16T10:02:13;1.85;;;1.05;;
33760;SDS011;20084;47.912;19.044;2024-01-16T10:04:39;4.85;;;1.65;;
33760;SDS011;20084;47.912;19.044;2024-01-16T10:07:06;2.80;;;1.20;;
33760;SDS011;20084;47.912;19.044;2024-01-16T10:09:34;2.03;;;1.30;;
33760;SDS011;20084;47.912;19.044;2024-01-16T10:12:00;2.65;;;1.45;;
33760;SDS011;20084;47.912;19.044;2024-01-16T10:14:26;3.40;;;1.40;;
33760;SDS011;20084;47.912;19.044;2024-01-16T10:16:59;3.50;;;1.63;;
33760;SDS011;20084;47.912;19.044;2024-01-16T10:19:34;3.20;;;1.80;;
33760;SDS011;20084;47.912;19.044;2024-01-16T10:22:10;2.22;;;1.27;;
33760;SDS011;20084;47.912;19.044;2024-01-16T10:24:36;2.17;;;1.17;;
33760;SDS011;20084;47.912;19.044;2024-01-16T10:27:02;1.70;;;1.15;;
33760;SDS011;20084;47.912;19.044;2024-01-16T10:29:28;1.95;;;1.20;;
33760;SDS011;20084;47.912;19.044;2024-01-16T10:31:56;3.05;;;1.58;;
33760;SDS011;20084;47.912;19.044;2024-01-16T10:34:22;1.55;;;1.42;;
33760;SDS011;20084;47.912;19.044;2024-01-16T10:36:49;1.35;;;1.02;;
33760;SDS011;20084;47.912;19.044;2024-01-16T10:39:17;3.42;;;1.27;;
33760;SDS011;20084;47.912;19.044;2024-01-16T10:41:53;3.65;;;1.35;;
33760;SDS011;20084;47.912;19.044;2024-01-16T10:44:22;3.00;;;1.10;;
33760;SDS011;20084;47.912;19.044;2024-01-16T10:46:48;2.30;;;1.65;;
33760;SDS011;20084;47.912;19.044;2024-01-16T10:49:14;3.38;;;1.30;;
33760;SDS011;20084;47.912;19.044;2024-01-16T10:51:42;1.92;;;1.20;;
33760;SDS011;20084;47.912;19.044;2024-01-16T10:54:10;1.63;;;1.30;;
33760;SDS011;20084;47.912;19.044;2024-01-16T10:56:42;2.28;;;1.30;;
33760;SDS011;20084;47.912;19.044;2024-01-16T10:59:13;4.30;;;1.45;;
33760;SDS011;20084;47.912;19.044;2024-01-16T11:01:58;3.53;;;1.40;;
33760;SDS011;20084;47.912;19.044;2024-01-16T11:04:27;1.48;;;1.00;;
33760;SDS011;20084;47.912;19.044;2024-01-16T11:06:53;6.53;;;3.40;;
33760;SDS011;20084;47.912;19.044;2024-01-16T11:09:20;7.18;;;2.22;;
33760;SDS011;20084;47.912;19.044;2024-01-16T11:11:46;15.30;;;8.65;;
33760;SDS011;20084;47.912;19.044;2024-01-16T11:14:13;7.63;;;4.60;;
33760;SDS011;20084;47.912;19.044;2024-01-16T11:16:40;6.57;;;4.20;;
33760;SDS011;20084;47.912;19.044;2024-01-16T11:19:07;9.70;;;3.47;;
33760;SDS011;20084;47.912;19.044;2024-01-16T11:21:35;2.20;;;1.50;;
33760;SDS011;20084;47.912;19.044;2024-01-16T11:24:02;6.40;;;2.65;;
33760;SDS011;20084;47.912;19.044;2024-01-16T11:26:31;1.83;;;1.10;;
33760;SDS011;20084;47.912;19.044;2024-01-16T11:28:59;3.38;;;1.50;;
33760;SDS011;20084;47.912;19.044;2024-01-16T11:31:35;6.20;;;1.45;;
33760;SDS011;20084;47.912;19.044;2024-01-16T11:34:01;2.42;;;1.00;;
33760;SDS011;20084;47.912;19.044;2024-01-16T11:39:21;1.55;;;0.90;;
33760;SDS011;20084;47.912;19.044;2024-01-16T11:41:50;1.55;;;0.68;;
33760;SDS011;20084;47.912;19.044;2024-01-16T11:47:03;2.83;;;1.08;;
33760;SDS011;20084;47.912;19.044;2024-01-16T11:49:29;3.08;;;1.00;;
33760;SDS011;20084;47.912;19.044;2024-01-16T11:51:58;4.63;;;1.50;;
33760;SDS011;20084;47.912;19.044;2024-01-16T11:54:24;1.55;;;0.70;;
33760;SDS011;20084;47.912;19.044;2024-01-16T12:00:04;1.30;;;0.70;;
33760;SDS011;20084;47.912;19.044;2024-01-16T12:02:52;1.80;;;0.73;;
33760;SDS011;20084;47.912;19.044;2024-01-16T12:05:20;2.90;;;1.02;;
33760;SDS011;20084;47.912;19.044;2024-01-16T12:07:46;1.98;;;1.08;;
33760;SDS011;20084;47.912;19.044;2024-01-16T12:10:17;0.52;;;0.52;;
33760;SDS011;20084;47.912;19.044;2024-01-16T12:12:45;3.10;;;0.80;;
33760;SDS011;20084;47.912;19.044;2024-01-16T12:15:18;1.65;;;0.52;;
33760;SDS011;20084;47.912;19.044;2024-01-16T12:18:01;1.92;;;1.00;;
33760;SDS011;20084;47.912;19.044;2024-01-16T12:20:29;2.38;;;0.70;;
33760;SDS011;20084;47.912;19.044;2024-01-16T12:25:23;1.70;;;1.00;;
33760;SDS011;20084;47.912;19.044;2024-01-16T12:27:57;1.23;;;0.88;;
33760;SDS011;20084;47.912;19.044;2024-01-16T12:30:27;1.40;;;0.75;;
33760;SDS011;20084;47.912;19.044;2024-01-16T12:33:04;0.68;;;0.60;;
33760;SDS011;20084;47.912;19.044;2024-01-16T12:35:41;5.35;;;0.80;;
33760;SDS011;20084;47.912;19.044;2024-01-16T12:38:13;1.25;;;0.60;;
33760;SDS011;20084;47.912;19.044;2024-01-16T12:40:42;2.60;;;0.70;;
33760;SDS011;20084;47.912;19.044;2024-01-16T12:43:15;2.20;;;0.80;;
33760;SDS011;20084;47.912;19.044;2024-01-16T12:45:42;1.25;;;0.65;;
33760;SDS011;20084;47.912;19.044;2024-01-16T12:48:09;0.57;;;0.32;;
33760;SDS011;20084;47.912;19.044;2024-01-16T12:50:35;1.60;;;0.70;;
33760;SDS011;20084;47.912;19.044;2024-01-16T12:53:08;2.00;;;0.93;;
33760;SDS011;20084;47.912;19.044;2024-01-16T12:55:39;1.80;;;0.40;;
33760;SDS011;20084;47.912;19.044;2024-01-16T12:58:17;1.42;;;0.68;;
33760;SDS011;20084;47.912;19.044;2024-01-16T13:00:44;0.98;;;0.80;;
33760;SDS011;20084;47.912;19.044;2024-01-16T13:03:21;2.42;;;0.60;;
33760;SDS011;20084;47.912;19.044;2024-01-16T13:06:09;1.35;;;0.80;;
33760;SDS011;20084;47.912;19.044;2024-01-16T13:08:35;2.53;;;0.52;;
33760;SDS011;20084;47.912;19.044;2024-01-16T13:11:05;0.77;;;0.52;;
33760;SDS011;20084;47.912;19.044;2024-01-16T13:13:32;2.15;;;0.65;;
33760;SDS011;20084;47.912;19.044;2024-01-16T13:15:58;3.15;;;0.88;;
33760;SDS011;20084;47.912;19.044;2024-01-16T13:18:25;1.52;;;0.70;;
33760;SDS011;20084;47.912;19.044;2024-01-16T13:20:53;0.88;;;0.60;;
33760;SDS011;20084;47.912;19.044;2024-01-16T13:23:20;1.70;;;1.05;;
33760;SDS011;20084;47.912;19.044;2024-01-16T13:25:46;2.40;;;0.60;;
33760;SDS011;20084;47.912;19.044;2024-01-16T13:28:13;1.50;;;0.63;;
33760;SDS011;20084;47.912;19.044;2024-01-16T13:30:40;0.85;;;0.43;;
33760;SDS011;20084;47.912;19.044;2024-01-16T13:33:06;2.47;;;0.57;;
33760;SDS011;20084;47.912;19.044;2024-01-16T13:35:34;1.77;;;0.50;;
33760;SDS011;20084;47.912;19.044;2024-01-16T13:38:01;1.38;;;0.82;;
33760;SDS011;20084;47.912;19.044;2024-01-16T13:40:28;2.95;;;0.70;;
33760;SDS011;20084;47.912;19.044;2024-01-16T13:42:54;0.90;;;0.60;;
33760;SDS011;20084;47.912;19.044;2024-01-16T13:45:20;2.90;;;0.90;;
33760;SDS011;20084;47.912;19.044;2024-01-16T13:47:46;1.33;;;0.70;;
33760;SDS011;20084;47.912;19.044;2024-01-16T13:50:12;1.45;;;0.47;;
33760;SDS011;20084;47.912;19.044;2024-01-16T13:52:37;1.92;;;0.70;;
33760;SDS011;20084;47.912;19.044;2024-01-16T13:55:05;1.17;;;0.70;;
33760;SDS011;20084;47.912;19.044;2024-01-16T13:57:32;1.67;;;0.93;;
33760;SDS011;20084;47.912;19.044;2024-01-16T14:00:00;0.90;;;0.65;;
33760;SDS011;20084;47.912;19.044;2024-01-16T14:02:25;3.75;;;0.50;;
33760;SDS011;20084;47.912;19.044;2024-01-16T14:04:51;1.10;;;0.70;;
33760;SDS011;20084;47.912;19.044;2024-01-16T14:07:16;1.02;;;0.50;;
33760;SDS011;20084;47.912;19.044;2024-01-16T14:09:42;1.27;;;0.50;;
33760;SDS011;20084;47.912;19.044;2024-01-16T14:12:08;0.95;;;0.45;;
33760;SDS011;20084;47.912;19.044;2024-01-16T14:14:34;3.78;;;0.50;;
33760;SDS011;20084;47.912;19.044;2024-01-16T14:17:00;1.35;;;0.77;;
33760;SDS011;20084;47.912;19.044;2024-01-16T14:19:26;2.08;;;0.70;;
33760;SDS011;20084;47.912;19.044;2024-01-16T14:21:54;1.25;;;0.65;;
33760;SDS011;20084;47.912;19.044;2024-01-16T14:24:20;1.02;;;0.43;;
33760;SDS011;20084;47.912;19.044;2024-01-16T14:26:46;0.98;;;0.55;;
33760;SDS011;20084;47.912;19.044;2024-01-16T14:29:12;1.00;;;0.50;;
33760;SDS011;20084;47.912;19.044;2024-01-16T14:31:38;1.23;;;0.40;;
33760;SDS011;20084;47.912;19.044;2024-01-16T14:34:10;0.95;;;0.40;;
33760;SDS011;20084;47.912;19.044;2024-01-16T14:36:39;1.42;;;0.50;;
33760;SDS011;20084;47.912;19.044;2024-01-16T14:39:04;1.95;;;0.70;;
33760;SDS011;20084;47.912;19.044;2024-01-16T14:41:30;1.00;;;0.60;;